sensor_id;sensor_type;location;lat;lon;timestamp;pressure;altitude;pressure_sealevel;temperature;humidity
59873;BME280;50750;51.636;4.948;2022-12-05T00:00:53;101933.67;;;9.16;60.07
59873;BME280;50750;51.636;4.948;2022-12-05T00:03:21;101932.61;;;9.16;60.02
59873;BME280;50750;51.636;4.948;2022-12-05T00:05:48;101939.78;;;9.16;60.08
59873;BME280;50750;51.636;4.948;2022-12-05T00:08:14;101941.52;;;9.16;60.02
59873;BME280;50750;51.636;4.948;2022-12-05T00:10:41;101943.80;;;9.16;59.99
59873;BME280;50750;51.636;4.948;2022-12-05T00:13:08;101943.29;;;9.15;60.13
59873;BME280;50750;51.636;4.948;2022-12-05T00:15:39;101942.95;;;9.15;60.07
59873;BME280;50750;51.636;4.948;2022-12-05T00:18:06;101943.99;;;9.15;60.03
59873;BME280;50750;51.636;4.948;2022-12-05T00:20:33;101945.38;;;9.16;60.03
59873;BME280;50750;51.636;4.948;2022-12-05T00:22:59;101945.56;;;9.15;60.08
59873;BME280;50750;51.636;4.948;2022-12-05T00:25:26;101943.11;;;9.15;60.14
59873;BME280;50750;51.636;4.948;2022-12-05T00:27:53;101942.59;;;9.15;60.14
59873;BME280;50750;51.636;4.948;2022-12-05T00:30:20;101942.58;;;9.16;60.21
59873;BME280;50750;51.636;4.948;2022-12-05T00:32:46;101941.19;;;9.15;60.16
59873;BME280;50750;51.636;4.948;2022-12-05T00:35:13;101938.92;;;9.15;60.12
59873;BME280;50750;51.636;4.948;2022-12-05T00:37:39;101938.40;;;9.15;60.12
59873;BME280;50750;51.636;4.948;2022-12-05T00:40:06;101934.54;;;9.15;60.18
59873;BME280;50750;51.636;4.948;2022-12-05T00:42:33;101934.90;;;9.15;60.19
59873;BME280;50750;51.636;4.948;2022-12-05T00:45:00;101932.45;;;9.15;60.07
59873;BME280;50750;51.636;4.948;2022-12-05T00:47:26;101928.95;;;9.15;60.13
59873;BME280;50750;51.636;4.948;2022-12-05T00:49:53;101926.15;;;9.15;60.25
59873;BME280;50750;51.636;4.948;2022-12-05T00:52:19;101923.02;;;9.15;60.08
59873;BME280;50750;51.636;4.948;2022-12-05T00:54:46;101922.67;;;9.15;60.13
59873;BME280;50750;51.636;4.948;2022-12-05T00:57:12;101922.14;;;9.15;60.30
59873;BME280;50750;51.636;4.948;2022-12-05T00:59:39;101927.39;;;9.15;60.12
59873;BME280;50750;51.636;4.948;2022-12-05T01:02:05;101923.70;;;9.15;60.16
59873;BME280;50750;51.636;4.948;2022-12-05T01:04:32;101923.71;;;9.15;60.15
59873;BME280;50750;51.636;4.948;2022-12-05T01:06:58;101922.67;;;9.15;60.24
59873;BME280;50750;51.636;4.948;2022-12-05T01:09:25;101922.14;;;9.15;60.19
59873;BME280;50750;51.636;4.948;2022-12-05T01:11:52;101924.41;;;9.15;60.30
59873;BME280;50750;51.636;4.948;2022-12-05T01:14:21;101922.66;;;9.15;60.24
59873;BME280;50750;51.636;4.948;2022-12-05T01:16:50;101923.54;;;9.15;60.27
59873;BME280;50750;51.636;4.948;2022-12-05T01:19:22;101922.84;;;9.15;60.22
59873;BME280;50750;51.636;4.948;2022-12-05T01:21:50;101927.20;;;9.16;60.38
59873;BME280;50750;51.636;4.948;2022-12-05T01:24:18;101927.02;;;9.15;60.23
59873;BME280;50750;51.636;4.948;2022-12-05T01:26:46;101930.52;;;9.15;60.31
59873;BME280;50750;51.636;4.948;2022-12-05T01:29:14;101931.58;;;9.15;60.32
59873;BME280;50750;51.636;4.948;2022-12-05T01:31:41;101933.33;;;9.15;60.31
59873;BME280;50750;51.636;4.948;2022-12-05T01:34:13;101937.35;;;9.15;60.34
59873;BME280;50750;51.636;4.948;2022-12-05T01:36:41;101937.16;;;9.16;60.28
59873;BME280;50750;51.636;4.948;2022-12-05T01:39:09;101939.45;;;9.16;60.22
59873;BME280;50750;51.636;4.948;2022-12-05T01:41:39;101945.55;;;9.16;60.36
59873;BME280;50750;51.636;4.948;2022-12-05T01:46:55;101947.12;;;9.16;60.25
59873;BME280;50750;51.636;4.948;2022-12-05T01:49:30;101950.63;;;9.15;60.36
59873;BME280;50750;51.636;4.948;2022-12-05T01:52:15;101952.38;;;9.16;60.23
59873;BME280;50750;51.636;4.948;2022-12-05T01:54:45;101956.91;;;9.16;60.25
59873;BME280;50750;51.636;4.948;2022-12-05T01:57:12;101958.84;;;9.16;60.36
59873;BME280;50750;51.636;4.948;2022-12-05T01:59:45;101960.05;;;9.16;60.40
59873;BME280;50750;51.636;4.948;2022-12-05T02:02:12;101959.19;;;9.16;60.34
59873;BME280;50750;51.636;4.948;2022-12-05T02:04:52;101958.84;;;9.16;60.26
59873;BME280;50750;51.636;4.948;2022-12-05T02:07:22;101959.71;;;9.16;60.34
59873;BME280;50750;51.636;4.948;2022-12-05T02:09:49;101959.52;;;9.16;60.27
59873;BME280;50750;51.636;4.948;2022-12-05T02:12:17;101955.52;;;9.16;60.37
59873;BME280;50750;51.636;4.948;2022-12-05T02:17:34;101957.27;;;9.16;60.40
59873;BME280;50750;51.636;4.948;2022-12-05T02:20:21;101959.35;;;9.16;60.35
59873;BME280;50750;51.636;4.948;2022-12-05T02:30:48;101956.04;;;9.15;60.38
59873;BME280;50750;51.636;4.948;2022-12-05T02:36:20;101956.39;;;9.15;60.44
59873;BME280;50750;51.636;4.948;2022-12-05T02:38:59;101955.34;;;9.15;60.40
59873;BME280;50750;51.636;4.948;2022-12-05T02:41:31;101952.73;;;9.14;60.49
59873;BME280;50750;51.636;4.948;2022-12-05T02:44:13;101954.30;;;9.14;60.50
59873;BME280;50750;51.636;4.948;2022-12-05T02:46:45;101952.04;;;9.14;60.49
59873;BME280;50750;51.636;4.948;2022-12-05T02:49:22;101951.87;;;9.14;60.41
59873;BME280;50750;51.636;4.948;2022-12-05T02:51:54;101952.74;;;9.14;60.46
59873;BME280;50750;51.636;4.948;2022-12-05T02:54:26;101954.66;;;9.14;60.49
59873;BME280;50750;51.636;4.948;2022-12-05T02:56:56;101956.23;;;9.14;60.43
59873;BME280;50750;51.636;4.948;2022-12-05T02:59:24;101957.80;;;9.15;60.51
59873;BME280;50750;51.636;4.948;2022-12-05T03:01:51;101957.80;;;9.14;60.49
59873;BME280;50750;51.636;4.948;2022-12-05T03:04:19;101958.84;;;9.15;60.52
59873;BME280;50750;51.636;4.948;2022-12-05T03:07:03;101963.91;;;9.15;60.50
59873;BME280;50750;51.636;4.948;2022-12-05T03:10:15;101963.38;;;9.15;60.36
59873;BME280;50750;51.636;4.948;2022-12-05T03:12:25;101962.33;;;9.15;60.66
59873;BME280;50750;51.636;4.948;2022-12-05T03:15:05;101963.91;;;9.15;60.55
59873;BME280;50750;51.636;4.948;2022-12-05T03:17:45;101962.52;;;9.15;60.58
59873;BME280;50750;51.636;4.948;2022-12-05T03:20:27;101960.94;;;9.15;60.53
59873;BME280;50750;51.636;4.948;2022-12-05T03:23:29;101960.41;;;9.15;60.54
59873;BME280;50750;51.636;4.948;2022-12-05T03:29:03;101959.37;;;9.16;60.50
59873;BME280;50750;51.636;4.948;2022-12-05T03:31:47;101958.31;;;9.16;60.48
59873;BME280;50750;51.636;4.948;2022-12-05T03:35:10;101958.66;;;9.16;60.69
59873;BME280;50750;51.636;4.948;2022-12-05T03:37:47;101955.35;;;9.16;60.63
59873;BME280;50750;51.636;4.948;2022-12-05T03:40:39;101955.35;;;9.16;60.59
59873;BME280;50750;51.636;4.948;2022-12-05T03:43:17;101955.34;;;9.16;60.55
59873;BME280;50750;51.636;4.948;2022-12-05T03:51:15;101963.55;;;9.17;60.56
59873;BME280;50750;51.636;4.948;2022-12-05T03:53:59;101962.86;;;9.17;60.52
59873;BME280;50750;51.636;4.948;2022-12-05T03:56:36;101961.28;;;9.16;60.59
59873;BME280;50750;51.636;4.948;2022-12-05T04:01:41;101968.11;;;9.17;60.62
59873;BME280;50750;51.636;4.948;2022-12-05T04:04:13;101965.83;;;9.17;60.65
59873;BME280;50750;51.636;4.948;2022-12-05T04:06:44;101962.34;;;9.17;60.67
59873;BME280;50750;51.636;4.948;2022-12-05T04:09:20;101961.46;;;9.17;60.56
59873;BME280;50750;51.636;4.948;2022-12-05T04:11:53;101964.08;;;9.17;60.63
59873;BME280;50750;51.636;4.948;2022-12-05T04:14:50;101964.95;;;9.17;60.70
59873;BME280;50750;51.636;4.948;2022-12-05T04:17:51;101966.01;;;9.17;60.61
59873;BME280;50750;51.636;4.948;2022-12-05T04:23:10;101966.36;;;9.17;60.59
59873;BME280;50750;51.636;4.948;2022-12-05T04:28:26;101973.16;;;9.17;60.58
59873;BME280;50750;51.636;4.948;2022-12-05T04:33:42;101973.69;;;9.17;60.62
59873;BME280;50750;51.636;4.948;2022-12-05T04:36:14;101974.73;;;9.17;60.74
59873;BME280;50750;51.636;4.948;2022-12-05T04:41:21;101971.59;;;9.16;60.62
59873;BME280;50750;51.636;4.948;2022-12-05T04:43:49;101979.46;;;9.16;60.67
59873;BME280;50750;51.636;4.948;2022-12-05T04:46:18;101974.05;;;9.15;60.75
59873;BME280;50750;51.636;4.948;2022-12-05T04:48:48;101978.58;;;9.16;60.71
59873;BME280;50750;51.636;4.948;2022-12-05T04:51:20;101976.84;;;9.15;60.72
59873;BME280;50750;51.636;4.948;2022-12-05T04:53:54;101981.38;;;9.15;60.64
59873;BME280;50750;51.636;4.948;2022-12-05T04:56:26;101981.02;;;9.15;60.83
59873;BME280;50750;51.636;4.948;2022-12-05T04:58:55;101982.60;;;9.15;60.68
59873;BME280;50750;51.636;4.948;2022-12-05T05:01:29;101980.33;;;9.15;60.88
59873;BME280;50750;51.636;4.948;2022-12-05T05:04:08;101982.95;;;9.16;60.76
59873;BME280;50750;51.636;4.948;2022-12-05T05:06:39;101981.20;;;9.15;60.83
59873;BME280;50750;51.636;4.948;2022-12-05T05:09:06;101981.90;;;9.15;60.85
59873;BME280;50750;51.636;4.948;2022-12-05T05:11:34;101980.33;;;9.16;60.73
59873;BME280;50750;51.636;4.948;2022-12-05T05:14:01;101981.91;;;9.16;60.81
59873;BME280;50750;51.636;4.948;2022-12-05T05:16:39;101980.70;;;9.16;60.79
59873;BME280;50750;51.636;4.948;2022-12-05T05:19:07;101980.68;;;9.17;60.74
59873;BME280;50750;51.636;4.948;2022-12-05T05:21:40;101981.21;;;9.17;60.77
59873;BME280;50750;51.636;4.948;2022-12-05T05:24:10;101980.67;;;9.18;60.73
59873;BME280;50750;51.636;4.948;2022-12-05T05:26:39;101982.22;;;9.20;60.77
59873;BME280;50750;51.636;4.948;2022-12-05T05:29:07;101981.16;;;9.22;60.94
59873;BME280;50750;51.636;4.948;2022-12-05T05:31:35;101984.81;;;9.24;60.76
59873;BME280;50750;51.636;4.948;2022-12-05T05:34:02;101986.91;;;9.25;60.73
59873;BME280;50750;51.636;4.948;2022-12-05T05:36:29;101986.20;;;9.26;60.63
59873;BME280;50750;51.636;4.948;2022-12-05T05:38:58;101987.60;;;9.27;60.57
59873;BME280;50750;51.636;4.948;2022-12-05T05:41:28;101990.02;;;9.28;60.64
59873;BME280;50750;51.636;4.948;2022-12-05T05:43:56;101990.91;;;9.29;60.50
59873;BME280;50750;51.636;4.948;2022-12-05T05:46:28;101994.76;;;9.29;60.54
59873;BME280;50750;51.636;4.948;2022-12-05T05:48:56;101995.79;;;9.30;60.61
59873;BME280;50750;51.636;4.948;2022-12-05T05:51:23;101993.52;;;9.30;60.54
59873;BME280;50750;51.636;4.948;2022-12-05T05:53:53;101995.45;;;9.31;60.55
59873;BME280;50750;51.636;4.948;2022-12-05T05:56:21;101990.73;;;9.30;60.49
59873;BME280;50750;51.636;4.948;2022-12-05T05:58:53;101988.29;;;9.29;60.61
59873;BME280;50750;51.636;4.948;2022-12-05T06:01:20;101989.85;;;9.30;60.54
59873;BME280;50750;51.636;4.948;2022-12-05T06:03:48;101992.48;;;9.29;60.62
59873;BME280;50750;51.636;4.948;2022-12-05T06:06:16;101992.64;;;9.29;60.56
59873;BME280;50750;51.636;4.948;2022-12-05T06:08:44;101996.50;;;9.29;60.68
59873;BME280;50750;51.636;4.948;2022-12-05T06:11:14;101995.98;;;9.29;60.53
59873;BME280;50750;51.636;4.948;2022-12-05T06:13:41;101998.95;;;9.28;60.61
59873;BME280;50750;51.636;4.948;2022-12-05T06:16:10;102002.28;;;9.28;60.60
59873;BME280;50750;51.636;4.948;2022-12-05T06:18:37;102005.41;;;9.28;60.49
59873;BME280;50750;51.636;4.948;2022-12-05T06:21:04;102004.38;;;9.27;60.63
59873;BME280;50750;51.636;4.948;2022-12-05T06:23:37;102003.34;;;9.27;60.52
59873;BME280;50750;51.636;4.948;2022-12-05T06:26:08;102006.30;;;9.27;60.61
59873;BME280;50750;51.636;4.948;2022-12-05T06:28:35;102007.70;;;9.26;60.62
59873;BME280;50750;51.636;4.948;2022-12-05T06:31:14;102006.48;;;9.26;60.57
59873;BME280;50750;51.636;4.948;2022-12-05T06:33:42;102008.73;;;9.26;60.66
59873;BME280;50750;51.636;4.948;2022-12-05T06:36:12;102005.96;;;9.25;60.75
59873;BME280;50750;51.636;4.948;2022-12-05T06:38:39;102006.83;;;9.25;60.65
59873;BME280;50750;51.636;4.948;2022-12-05T06:41:09;102007.72;;;9.24;60.69
59873;BME280;50750;51.636;4.948;2022-12-05T06:43:36;102011.91;;;9.24;60.71
59873;BME280;50750;51.636;4.948;2022-12-05T06:46:05;102009.98;;;9.24;60.75
59873;BME280;50750;51.636;4.948;2022-12-05T06:48:32;102013.13;;;9.24;60.87
59873;BME280;50750;51.636;4.948;2022-12-05T06:50:58;102012.25;;;9.24;60.81
59873;BME280;50750;51.636;4.948;2022-12-05T06:53:25;102013.84;;;9.23;60.79
59873;BME280;50750;51.636;4.948;2022-12-05T06:55:56;102018.03;;;9.23;60.69
59873;BME280;50750;51.636;4.948;2022-12-05T06:58:24;102021.17;;;9.23;60.81
59873;BME280;50750;51.636;4.948;2022-12-05T07:00:53;102023.45;;;9.23;60.78
59873;BME280;50750;51.636;4.948;2022-12-05T07:03:39;102025.91;;;9.22;60.84
59873;BME280;50750;51.636;4.948;2022-12-05T07:06:06;102028.00;;;9.23;60.80
59873;BME280;50750;51.636;4.948;2022-12-05T07:08:34;102029.76;;;9.22;60.79
59873;BME280;50750;51.636;4.948;2022-12-05T07:11:02;102025.05;;;9.22;60.82
59873;BME280;50750;51.636;4.948;2022-12-05T07:13:28;102030.45;;;9.22;60.77
59873;BME280;50750;51.636;4.948;2022-12-05T07:15:55;102029.92;;;9.22;60.85
59873;BME280;50750;51.636;4.948;2022-12-05T07:18:24;102032.90;;;9.21;60.92
59873;BME280;50750;51.636;4.948;2022-12-05T07:21:05;102034.11;;;9.21;60.86
59873;BME280;50750;51.636;4.948;2022-12-05T07:23:32;102037.79;;;9.21;60.96
59873;BME280;50750;51.636;4.948;2022-12-05T07:26:03;102037.61;;;9.22;60.83
59873;BME280;50750;51.636;4.948;2022-12-05T07:28:30;102039.36;;;9.21;60.92
59873;BME280;50750;51.636;4.948;2022-12-05T07:31:05;102042.33;;;9.21;60.92
59873;BME280;50750;51.636;4.948;2022-12-05T07:33:32;102039.36;;;9.21;60.96
59873;BME280;50750;51.636;4.948;2022-12-05T07:36:07;102044.08;;;9.21;60.92
59873;BME280;50750;51.636;4.948;2022-12-05T07:38:34;102042.16;;;9.21;60.93
59873;BME280;50750;51.636;4.948;2022-12-05T07:41:10;102048.45;;;9.21;60.90
59873;BME280;50750;51.636;4.948;2022-12-05T07:43:40;102048.09;;;9.21;61.02
59873;BME280;50750;51.636;4.948;2022-12-05T07:46:08;102052.11;;;9.21;60.92
59873;BME280;50750;51.636;4.948;2022-12-05T07:48:36;102050.38;;;9.21;61.02
59873;BME280;50750;51.636;4.948;2022-12-05T07:51:05;102054.56;;;9.21;60.95
59873;BME280;50750;51.636;4.948;2022-12-05T07:53:32;102052.12;;;9.21;61.00
59873;BME280;50750;51.636;4.948;2022-12-05T07:56:00;102056.66;;;9.21;60.94
59873;BME280;50750;51.636;4.948;2022-12-05T07:58:27;102057.54;;;9.21;60.95
59873;BME280;50750;51.636;4.948;2022-12-05T08:00:55;102061.73;;;9.21;61.05
59873;BME280;50750;51.636;4.948;2022-12-05T08:03:22;102060.51;;;9.21;60.95
59873;BME280;50750;51.636;4.948;2022-12-05T08:05:49;102065.75;;;9.23;60.93
59873;BME280;50750;51.636;4.948;2022-12-05T08:08:16;102072.02;;;9.25;60.96
59873;BME280;50750;51.636;4.948;2022-12-05T08:10:42;102073.42;;;9.27;61.02
59873;BME280;50750;51.636;4.948;2022-12-05T08:13:09;102072.20;;;9.28;60.89
59873;BME280;50750;51.636;4.948;2022-12-05T08:15:35;102075.33;;;9.29;60.90
59873;BME280;50750;51.636;4.948;2022-12-05T08:18:02;102076.04;;;9.30;61.03
59873;BME280;50750;51.636;4.948;2022-12-05T08:20:29;102079.85;;;9.32;60.87
59873;BME280;50750;51.636;4.948;2022-12-05T08:22:56;102086.48;;;9.32;60.75
59873;BME280;50750;51.636;4.948;2022-12-05T08:25:22;102085.09;;;9.32;60.86
59873;BME280;50750;51.636;4.948;2022-12-05T08:27:49;102088.77;;;9.33;60.81
59873;BME280;50750;51.636;4.948;2022-12-05T08:30:16;102088.08;;;9.33;60.77
59873;BME280;50750;51.636;4.948;2022-12-05T08:32:42;102088.23;;;9.33;60.86
59873;BME280;50750;51.636;4.948;2022-12-05T08:35:09;102093.13;;;9.34;60.83
59873;BME280;50750;51.636;4.948;2022-12-05T08:37:35;102093.83;;;9.34;60.91
59873;BME280;50750;51.636;4.948;2022-12-05T08:40:03;102093.14;;;9.33;60.82
59873;BME280;50750;51.636;4.948;2022-12-05T08:42:30;102094.89;;;9.33;60.80
59873;BME280;50750;51.636;4.948;2022-12-05T08:44:56;102092.77;;;9.32;60.78
59873;BME280;50750;51.636;4.948;2022-12-05T08:47:23;102094.53;;;9.32;60.79
59873;BME280;50750;51.636;4.948;2022-12-05T08:49:50;102094.19;;;9.32;60.79
59873;BME280;50750;51.636;4.948;2022-12-05T08:52:17;102093.49;;;9.31;60.87
59873;BME280;50750;51.636;4.948;2022-12-05T08:54:43;102099.44;;;9.32;60.88
59873;BME280;50750;51.636;4.948;2022-12-05T08:57:10;102102.23;;;9.31;60.91
59873;BME280;50750;51.636;4.948;2022-12-05T08:59:36;102099.96;;;9.31;60.85
59873;BME280;50750;51.636;4.948;2022-12-05T09:02:03;102101.02;;;9.31;60.86
59873;BME280;50750;51.636;4.948;2022-12-05T09:04:30;102097.36;;;9.30;60.99
59873;BME280;50750;51.636;4.948;2022-12-05T09:06:56;102097.88;;;9.29;60.88
59873;BME280;50750;51.636;4.948;2022-12-05T09:09:23;102101.55;;;9.30;60.97
59873;BME280;50750;51.636;4.948;2022-12-05T09:11:49;102101.73;;;9.29;60.91
59873;BME280;50750;51.636;4.948;2022-12-05T09:14:16;102107.48;;;9.29;60.95
59873;BME280;50750;51.636;4.948;2022-12-05T09:16:44;102108.02;;;9.29;61.12
59873;BME280;50750;51.636;4.948;2022-12-05T09:19:17;102112.56;;;9.28;60.86
59873;BME280;50750;51.636;4.948;2022-12-05T09:21:46;102111.52;;;9.28;61.07
59873;BME280;50750;51.636;4.948;2022-12-05T09:24:13;102114.14;;;9.28;60.89
59873;BME280;50750;51.636;4.948;2022-12-05T09:26:40;102116.41;;;9.27;61.01
59873;BME280;50750;51.636;4.948;2022-12-05T09:29:07;102120.78;;;9.28;61.01
59873;BME280;50750;51.636;4.948;2022-12-05T09:31:34;102125.50;;;9.28;60.93
59873;BME280;50750;51.636;4.948;2022-12-05T09:34:02;102129.53;;;9.27;61.07
59873;BME280;50750;51.636;4.948;2022-12-05T09:36:30;102128.82;;;9.27;60.91
59873;BME280;50750;51.636;4.948;2022-12-05T09:39:04;102129.54;;;9.27;61.05
59873;BME280;50750;51.636;4.948;2022-12-05T09:47:12;102138.27;;;9.27;61.07
59873;BME280;50750;51.636;4.948;2022-12-05T09:49:48;102138.27;;;9.27;61.16
59873;BME280;50750;51.636;4.948;2022-12-05T09:52:35;102136.17;;;9.26;61.13
59873;BME280;50750;51.636;4.948;2022-12-05T09:55:18;102136.52;;;9.26;61.13
59873;BME280;50750;51.636;4.948;2022-12-05T09:58:10;102134.95;;;9.27;61.21
59873;BME280;50750;51.636;4.948;2022-12-05T10:00:40;102134.42;;;9.26;61.19
59873;BME280;50750;51.636;4.948;2022-12-05T10:03:35;102136.51;;;9.26;61.15
59873;BME280;50750;51.636;4.948;2022-12-05T10:11:17;102139.14;;;9.26;61.24
59873;BME280;50750;51.636;4.948;2022-12-05T10:16:56;102140.53;;;9.26;61.17
59873;BME280;50750;51.636;4.948;2022-12-05T10:19:26;102136.70;;;9.26;61.26
59873;BME280;50750;51.636;4.948;2022-12-05T10:22:04;102132.14;;;9.26;61.27
59873;BME280;50750;51.636;4.948;2022-12-05T10:24:40;102129.70;;;9.26;61.24
59873;BME280;50750;51.636;4.948;2022-12-05T10:27:16;102131.62;;;9.27;61.27
59873;BME280;50750;51.636;4.948;2022-12-05T10:30:06;102133.70;;;9.29;61.25
59873;BME280;50750;51.636;4.948;2022-12-05T10:32:58;102137.02;;;9.32;61.10
59873;BME280;50750;51.636;4.948;2022-12-05T10:35:37;102136.48;;;9.33;61.11
59873;BME280;50750;51.636;4.948;2022-12-05T10:38:05;102137.00;;;9.34;61.11
59873;BME280;50750;51.636;4.948;2022-12-05T10:40:42;102139.80;;;9.36;61.03
59873;BME280;50750;51.636;4.948;2022-12-05T10:43:13;102139.77;;;9.37;61.06
59873;BME280;50750;51.636;4.948;2022-12-05T10:45:46;102141.71;;;9.37;61.12
59873;BME280;50750;51.636;4.948;2022-12-05T10:48:15;102144.70;;;9.38;61.08
59873;BME280;50750;51.636;4.948;2022-12-05T10:50:44;102145.38;;;9.39;61.02
59873;BME280;50750;51.636;4.948;2022-12-05T10:53:15;102145.04;;;9.38;60.98
59873;BME280;50750;51.636;4.948;2022-12-05T10:55:45;102148.34;;;9.39;61.08
59873;BME280;50750;51.636;4.948;2022-12-05T11:00:55;102142.40;;;9.39;61.02
59873;BME280;50750;51.636;4.948;2022-12-05T11:03:26;102142.93;;;9.39;61.04
59873;BME280;50750;51.636;4.948;2022-12-05T11:05:56;102139.80;;;9.38;61.15
59873;BME280;50750;51.636;4.948;2022-12-05T11:08:26;102136.48;;;9.37;61.08
59873;BME280;50750;51.636;4.948;2022-12-05T11:11:22;102138.23;;;9.38;61.21
59873;BME280;50750;51.636;4.948;2022-12-05T11:13:54;102131.40;;;9.37;61.30
59873;BME280;50750;51.636;4.948;2022-12-05T11:16:36;102132.27;;;9.37;61.41
59873;BME280;50750;51.636;4.948;2022-12-05T11:21:48;102131.58;;;9.36;61.39
59873;BME280;50750;51.636;4.948;2022-12-05T11:24:20;102127.58;;;9.36;61.39
59873;BME280;50750;51.636;4.948;2022-12-05T11:26:48;102126.52;;;9.36;61.51
59873;BME280;50750;51.636;4.948;2022-12-05T11:29:38;102127.56;;;9.35;61.44
59873;BME280;50750;51.636;4.948;2022-12-05T11:32:17;102130.20;;;9.35;61.49
59873;BME280;50750;51.636;4.948;2022-12-05T11:38:11;102125.99;;;9.34;61.45
59873;BME280;50750;51.636;4.948;2022-12-05T11:41:49;102131.77;;;9.34;61.48
59873;BME280;50750;51.636;4.948;2022-12-05T11:50:33;102138.59;;;9.33;61.49
59873;BME280;50750;51.636;4.948;2022-12-05T11:55:52;102131.95;;;9.33;61.49
59873;BME280;50750;51.636;4.948;2022-12-05T11:58:40;102131.58;;;9.32;61.57
59873;BME280;50750;51.636;4.948;2022-12-05T12:01:32;102135.78;;;9.32;61.55
59873;BME280;50750;51.636;4.948;2022-12-05T12:09:37;102137.36;;;9.31;61.54
59873;BME280;50750;51.636;4.948;2022-12-05T12:12:27;102133.52;;;9.32;61.44
59873;BME280;50750;51.636;4.948;2022-12-05T12:15:18;102136.30;;;9.33;61.54
59873;BME280;50750;51.636;4.948;2022-12-05T12:18:04;102136.65;;;9.36;61.47
59873;BME280;50750;51.636;4.948;2022-12-05T12:26:28;102134.54;;;9.39;61.52
59873;BME280;50750;51.636;4.948;2022-12-05T12:37:57;102128.76;;;9.41;61.48
59873;BME280;50750;51.636;4.948;2022-12-05T12:40:48;102123.86;;;9.42;61.38
59873;BME280;50750;51.636;4.948;2022-12-05T12:43:23;102126.82;;;9.42;61.38
59873;BME280;50750;51.636;4.948;2022-12-05T12:51:32;102124.72;;;9.42;61.39
59873;BME280;50750;51.636;4.948;2022-12-05T12:54:11;102116.34;;;9.42;61.36
59873;BME280;50750;51.636;4.948;2022-12-05T13:05:03;102113.90;;;9.41;61.44
59873;BME280;50750;51.636;4.948;2022-12-05T13:07:43;102112.67;;;9.40;61.50
59873;BME280;50750;51.636;4.948;2022-12-05T13:10:22;102109.01;;;9.40;61.49
59873;BME280;50750;51.636;4.948;2022-12-05T13:12:51;102108.13;;;9.39;61.41
59873;BME280;50750;51.636;4.948;2022-12-05T13:15:44;102102.36;;;9.39;61.59
59873;BME280;50750;51.636;4.948;2022-12-05T13:18:15;102102.02;;;9.39;61.49
59873;BME280;50750;51.636;4.948;2022-12-05T13:20:42;102103.95;;;9.39;61.51
59873;BME280;50750;51.636;4.948;2022-12-05T13:23:13;102104.29;;;9.39;61.43
59873;BME280;50750;51.636;4.948;2022-12-05T13:25:42;102105.70;;;9.39;61.51
59873;BME280;50750;51.636;4.948;2022-12-05T13:30:58;102102.90;;;9.39;61.50
59873;BME280;50750;51.636;4.948;2022-12-05T13:33:48;102101.84;;;9.39;61.56
59873;BME280;50750;51.636;4.948;2022-12-05T13:36:17;102100.10;;;9.39;61.53
59873;BME280;50750;51.636;4.948;2022-12-05T13:39:18;102099.73;;;9.39;61.56
59873;BME280;50750;51.636;4.948;2022-12-05T13:42:06;102099.77;;;9.38;61.44
59873;BME280;50750;51.636;4.948;2022-12-05T13:44:53;102097.31;;;9.38;61.49
59873;BME280;50750;51.636;4.948;2022-12-05T13:55:33;102098.36;;;9.38;61.73
59873;BME280;50750;51.636;4.948;2022-12-05T13:58:02;102102.90;;;9.38;61.58
59873;BME280;50750;51.636;4.948;2022-12-05T14:00:34;102100.98;;;9.38;61.51
59873;BME280;50750;51.636;4.948;2022-12-05T14:05:51;102103.59;;;9.39;61.54
59873;BME280;50750;51.636;4.948;2022-12-05T14:15:53;102106.18;;;9.44;61.54
59873;BME280;50750;51.636;4.948;2022-12-05T14:18:33;102108.10;;;9.45;61.52
59873;BME280;50750;51.636;4.948;2022-12-05T14:21:17;102109.14;;;9.47;61.52
59873;BME280;50750;51.636;4.948;2022-12-05T14:24:08;102110.19;;;9.48;61.48
59873;BME280;50750;51.636;4.948;2022-12-05T14:34:46;102109.31;;;9.48;61.49
59873;BME280;50750;51.636;4.948;2022-12-05T14:39:44;102115.27;;;9.47;61.45
59873;BME280;50750;51.636;4.948;2022-12-05T14:42:37;102115.79;;;9.47;61.50
59873;BME280;50750;51.636;4.948;2022-12-05T14:45:39;102117.53;;;9.47;61.51
59873;BME280;50750;51.636;4.948;2022-12-05T14:50:51;102120.16;;;9.46;61.38
59873;BME280;50750;51.636;4.948;2022-12-05T14:56:23;102120.51;;;9.45;61.52
59873;BME280;50750;51.636;4.948;2022-12-05T14:59:04;102118.23;;;9.45;61.47
59873;BME280;50750;51.636;4.948;2022-12-05T15:01:45;102120.17;;;9.44;61.54
59873;BME280;50750;51.636;4.948;2022-12-05T15:04:40;102122.95;;;9.45;61.50
59873;BME280;50750;51.636;4.948;2022-12-05T15:07:16;102117.55;;;9.44;61.54
59873;BME280;50750;51.636;4.948;2022-12-05T15:09:58;102123.85;;;9.44;61.67
59873;BME280;50750;51.636;4.948;2022-12-05T15:12:37;102125.77;;;9.44;61.63
59873;BME280;50750;51.636;4.948;2022-12-05T15:15:16;102126.13;;;9.44;61.64
59873;BME280;50750;51.636;4.948;2022-12-05T15:17:46;102127.17;;;9.43;61.70
59873;BME280;50750;51.636;4.948;2022-12-05T15:20:21;102130.14;;;9.42;61.60
59873;BME280;50750;51.636;4.948;2022-12-05T15:22:51;102129.45;;;9.42;61.74
59873;BME280;50750;51.636;4.948;2022-12-05T15:25:29;102128.23;;;9.42;61.74
59873;BME280;50750;51.636;4.948;2022-12-05T15:28:00;102136.62;;;9.42;61.73
59873;BME280;50750;51.636;4.948;2022-12-05T15:30:28;102135.23;;;9.41;61.76
59873;BME280;50750;51.636;4.948;2022-12-05T15:32:55;102136.61;;;9.42;61.82
59873;BME280;50750;51.636;4.948;2022-12-05T15:35:24;102138.89;;;9.42;61.78
59873;BME280;50750;51.636;4.948;2022-12-05T15:37:57;102141.67;;;9.42;61.78
59873;BME280;50750;51.636;4.948;2022-12-05T15:40:31;102141.16;;;9.42;61.80
59873;BME280;50750;51.636;4.948;2022-12-05T15:43:25;102140.28;;;9.43;61.90
59873;BME280;50750;51.636;4.948;2022-12-05T15:46:22;102140.10;;;9.45;61.77
59873;BME280;50750;51.636;4.948;2022-12-05T15:48:51;102139.58;;;9.46;61.73
59873;BME280;50750;51.636;4.948;2022-12-05T15:51:20;102140.79;;;9.47;61.71